createdAt,value
2019-01-11T00:01:22.219Z,4.00
2019-01-11T00:04:11.513Z,4.00
2019-01-11T00:07:01.070Z,4.00
2019-01-11T00:09:51.909Z,4.10
2019-01-11T00:12:41.279Z,4.10
2019-01-11T00:15:31.102Z,4.10
2019-01-11T00:18:20.421Z,4.20
2019-01-11T00:21:09.662Z,4.20
2019-01-11T00:23:58.989Z,4.20
2019-01-11T00:26:48.614Z,4.30
2019-01-11T00:29:37.958Z,4.30
2019-01-11T00:32:27.462Z,4.30
2019-01-11T00:35:17.943Z,4.40
2019-01-11T00:38:07.163Z,4.40
2019-01-11T00:40:56.319Z,4.40
2019-01-11T00:43:45.832Z,4.50
2019-01-11T00:46:35.209Z,4.50
2019-01-11T00:49:24.342Z,4.50
2019-01-11T00:52:13.652Z,4.60
2019-01-11T00:55:02.959Z,4.70
2019-01-11T00:57:55.261Z,4.70
2019-01-11T01:00:44.569Z,4.70
2019-01-11T01:03:34.858Z,4.80
2019-01-11T01:06:24.172Z,4.90
2019-01-11T01:09:13.820Z,4.90
2019-01-11T01:12:03.044Z,4.90
2019-01-11T01:14:52.303Z,5.00
2019-01-11T01:17:41.299Z,5.00
2019-01-11T01:20:30.572Z,5.00
2019-01-11T01:23:19.652Z,5.10
2019-01-11T01:26:09.289Z,5.20
2019-01-11T01:28:58.729Z,5.20
2019-01-11T01:31:48.097Z,5.30
2019-01-11T01:34:37.579Z,5.30
2019-01-11T01:37:26.830Z,5.30
2019-01-11T01:40:16.690Z,5.40
2019-01-11T01:43:06.219Z,5.40
2019-01-11T01:45:55.482Z,5.40
2019-01-11T01:48:45.381Z,5.50
2019-01-11T01:51:35.631Z,5.50
2019-01-11T01:54:24.803Z,5.60
2019-01-11T01:57:14.060Z,5.60
2019-01-11T02:00:03.493Z,5.60
2019-01-11T02:02:53.149Z,5.70
2019-01-11T02:05:42.473Z,5.70
2019-01-11T02:08:31.622Z,5.80
2019-01-11T02:11:20.823Z,5.90
2019-01-11T02:14:10.261Z,5.90
2019-01-11T02:16:59.562Z,6.00
2019-01-11T02:19:48.920Z,5.90
2019-01-11T02:22:38.078Z,6.00
2019-01-11T02:25:27.359Z,6.00
2019-01-11T02:28:16.590Z,6.10
2019-01-11T02:31:06.159Z,6.10
2019-01-11T02:33:55.483Z,6.10
2019-01-11T02:36:45.031Z,6.10
2019-01-11T02:39:34.305Z,6.20
2019-01-11T02:42:23.752Z,6.20
2019-01-11T02:45:15.031Z,6.20
2019-01-11T02:48:04.511Z,6.30
2019-01-11T02:50:53.710Z,6.30
2019-01-11T02:53:42.993Z,6.30
2019-01-11T02:56:32.308Z,6.40
2019-01-11T02:59:21.661Z,6.40
2019-01-11T03:02:11.280Z,6.40
2019-01-11T03:05:00.524Z,6.50
2019-01-11T03:07:51.081Z,6.50
2019-01-11T03:10:40.611Z,6.50
2019-01-11T03:13:29.901Z,6.50
2019-01-11T03:16:19.301Z,6.60
2019-01-11T03:19:08.552Z,6.60
2019-01-11T03:21:57.862Z,6.60
2019-01-11T03:24:47.039Z,6.60
2019-01-11T03:27:36.373Z,6.60
2019-01-11T03:30:25.669Z,6.60
2019-01-11T03:33:15.292Z,6.60
2019-01-11T03:36:04.598Z,6.60
2019-01-11T03:38:53.778Z,6.70
2019-01-11T03:41:52.826Z,6.70
2019-01-11T03:44:42.201Z,6.80
2019-01-11T03:47:31.364Z,6.80
2019-01-11T03:50:20.999Z,6.90
2019-01-11T03:53:10.479Z,7.00
2019-01-11T03:55:59.712Z,7.00
2019-01-11T03:58:49.010Z,7.00
2019-01-11T04:01:38.311Z,7.20
2019-01-11T04:04:27.441Z,7.30
2019-01-11T04:07:16.621Z,7.30
2019-01-11T04:10:07.759Z,7.40
2019-01-11T04:12:57.361Z,7.40
2019-01-11T04:15:47.023Z,7.40
2019-01-11T04:18:38.191Z,7.40
2019-01-11T04:21:27.782Z,7.50
2019-01-11T04:24:17.186Z,7.50
2019-01-11T04:27:06.449Z,7.60
2019-01-11T04:29:56.028Z,7.60
2019-01-11T04:32:45.387Z,7.60
2019-01-11T04:35:34.571Z,7.60
2019-01-11T04:38:23.744Z,7.60
2019-01-11T04:41:13.051Z,7.60
2019-01-11T04:44:02.290Z,7.60
2019-01-11T04:46:51.634Z,7.70
2019-01-11T04:49:41.911Z,7.70
2019-01-11T04:52:31.290Z,7.70
2019-01-11T04:55:20.706Z,7.70
2019-01-11T04:58:10.040Z,7.70
2019-01-11T05:00:59.518Z,7.70
2019-01-11T05:03:48.553Z,7.70
2019-01-11T05:06:37.760Z,7.70
2019-01-11T05:09:27.006Z,7.70
2019-01-11T05:12:16.354Z,7.80
2019-01-11T05:15:06.315Z,7.80
2019-01-11T05:17:56.038Z,7.80
2019-01-11T05:20:46.371Z,7.80
2019-01-11T05:23:35.499Z,7.90
2019-01-11T05:26:24.613Z,7.90
2019-01-11T05:29:13.803Z,7.90
2019-01-11T05:32:03.358Z,7.90
2019-01-11T05:34:52.620Z,7.90
2019-01-11T05:37:41.940Z,7.90
2019-01-11T05:40:31.122Z,8.00
2019-01-11T05:43:20.380Z,8.00
2019-01-11T05:46:09.893Z,8.00
2019-01-11T05:48:59.183Z,8.00
2019-01-11T05:51:48.373Z,8.00
2019-01-11T05:54:37.751Z,8.00
2019-01-11T05:57:26.692Z,8.00
2019-01-11T06:00:16.034Z,8.00
2019-01-11T06:03:06.202Z,8.10
2019-01-11T06:05:55.408Z,8.10
2019-01-11T06:08:44.664Z,8.10
2019-01-11T06:11:34.354Z,8.10
2019-01-11T06:14:23.549Z,8.10
2019-01-11T06:17:12.761Z,8.20
2019-01-11T06:20:01.988Z,8.20
2019-01-11T06:22:51.222Z,8.20
2019-01-11T06:25:40.537Z,8.20
2019-01-11T06:28:29.972Z,8.30
2019-01-11T06:31:19.118Z,8.30
2019-01-11T06:34:08.270Z,8.40
2019-01-11T06:36:57.569Z,8.40
2019-01-11T06:39:46.798Z,8.40
2019-01-11T06:42:36.010Z,8.50
2019-01-11T06:45:25.449Z,8.50
2019-01-11T06:48:33.538Z,8.50
2019-01-11T06:51:22.741Z,8.50
2019-01-11T06:54:12.359Z,8.50
2019-01-11T06:57:02.828Z,8.50
2019-01-11T06:59:51.999Z,8.50
2019-01-11T07:02:41.661Z,8.50
2019-01-11T07:05:30.903Z,8.60
2019-01-11T07:08:20.538Z,8.60
2019-01-11T07:11:10.368Z,8.60
2019-01-11T07:13:59.573Z,8.60
2019-01-11T07:16:48.821Z,8.70
2019-01-11T07:19:37.988Z,8.60
2019-01-11T07:22:27.219Z,8.60
2019-01-11T07:25:16.455Z,8.70
2019-01-11T07:28:06.021Z,8.70
2019-01-11T07:31:07.912Z,8.60
2019-01-11T07:33:57.372Z,8.70
2019-01-11T07:36:51.839Z,8.70
2019-01-11T07:39:41.258Z,8.70
2019-01-11T07:42:30.663Z,8.70
2019-01-11T07:45:19.952Z,8.70
2019-01-11T07:48:09.218Z,8.70
2019-01-11T07:50:58.461Z,8.70
2019-01-11T07:53:47.661Z,8.70
2019-01-11T07:56:37.153Z,8.80
2019-01-11T07:59:26.439Z,8.80
2019-01-11T08:02:15.660Z,8.80
2019-01-11T08:05:05.258Z,8.80
2019-01-11T08:07:54.753Z,8.80
2019-01-11T08:10:44.001Z,8.70
2019-01-11T08:13:33.531Z,8.70
2019-01-11T08:16:22.601Z,8.70
2019-01-11T08:19:11.801Z,8.70
2019-01-11T08:22:01.244Z,8.70
2019-01-11T08:24:58.012Z,8.70
2019-01-11T08:27:47.018Z,8.70
2019-01-11T08:30:36.649Z,8.70
2019-01-11T08:33:26.462Z,8.70
2019-01-11T08:36:15.831Z,8.70
2019-01-11T08:39:09.911Z,8.70
2019-01-11T08:41:59.442Z,8.70
2019-01-11T08:44:48.577Z,8.70
2019-01-11T08:47:37.773Z,8.80
2019-01-11T08:50:27.143Z,8.80
2019-01-11T08:53:16.597Z,8.80
2019-01-11T08:56:09.326Z,8.80
2019-01-11T08:59:47.440Z,8.90
2019-01-11T09:02:39.577Z,8.90
2019-01-11T09:05:28.853Z,8.90
2019-01-11T09:08:18.021Z,8.90
2019-01-11T09:11:07.361Z,8.90
2019-01-11T09:13:56.492Z,8.90
2019-01-11T09:16:45.739Z,8.90
2019-01-11T09:19:35.141Z,8.90
2019-01-11T09:22:24.408Z,9.00
2019-01-11T09:25:13.642Z,8.90
2019-01-11T09:28:02.941Z,9.00
2019-01-11T09:30:52.078Z,9.00
2019-01-11T09:33:41.353Z,9.00
2019-01-11T09:36:30.679Z,9.00
2019-01-11T09:39:19.951Z,9.00
2019-01-11T09:42:09.511Z,9.00
2019-01-11T09:44:59.054Z,9.00
2019-01-11T09:47:48.208Z,9.00
2019-01-11T09:50:37.501Z,9.00
2019-01-11T09:53:27.160Z,9.00
2019-01-11T09:56:16.680Z,9.00
2019-01-11T09:59:06.122Z,9.00
2019-01-11T10:02:18.861Z,9.00
2019-01-11T10:05:10.023Z,9.00
2019-01-11T10:07:58.998Z,9.00
2019-01-11T10:10:48.326Z,9.10
2019-01-11T10:13:37.560Z,9.10
2019-01-11T10:16:26.728Z,9.20
2019-01-11T10:19:16.403Z,9.20
2019-01-11T10:22:05.680Z,9.30
2019-01-11T10:24:55.118Z,9.30
2019-01-11T10:27:44.600Z,9.30
2019-01-11T10:30:33.902Z,9.40
2019-01-11T10:33:23.028Z,9.40
2019-01-11T10:36:13.718Z,9.50
2019-01-11T10:39:03.151Z,9.50
2019-01-11T10:41:53.832Z,9.50
2019-01-11T10:44:43.158Z,9.60
2019-01-11T10:47:32.030Z,9.60
2019-01-11T10:50:21.422Z,9.70
2019-01-11T10:53:10.541Z,9.70
2019-01-11T10:55:59.928Z,9.70
2019-01-11T10:58:49.241Z,9.70
2019-01-11T11:01:38.578Z,9.80
2019-01-11T11:04:27.770Z,9.70
2019-01-11T11:07:16.960Z,9.90
2019-01-11T11:10:06.968Z,9.90
2019-01-11T11:12:56.321Z,10.00
2019-01-11T11:15:48.357Z,10.00
2019-01-11T11:18:39.091Z,10.00
2019-01-11T11:21:34.486Z,10.00
2019-01-11T11:24:19.205Z,10.00
2019-01-11T11:27:08.878Z,10.00
2019-01-11T11:29:58.120Z,10.00
2019-01-11T11:32:57.641Z,10.00
2019-01-11T11:35:46.981Z,10.00
2019-01-11T11:38:36.210Z,10.00
2019-01-11T11:41:25.422Z,10.00
2019-01-11T11:44:14.698Z,10.00
2019-01-11T11:47:03.789Z,10.00
2019-01-11T11:49:53.032Z,10.00
2019-01-11T11:52:42.281Z,10.00
2019-01-11T11:55:31.490Z,10.00
2019-01-11T11:58:20.601Z,10.00
2019-01-11T12:01:09.854Z,10.00
2019-01-11T12:03:59.086Z,10.00
2019-01-11T12:06:48.358Z,9.90
2019-01-11T12:09:37.678Z,9.90
2019-01-11T12:12:26.687Z,9.80
2019-01-11T12:15:16.522Z,9.90
2019-01-11T12:18:05.998Z,9.80
2019-01-11T12:20:55.400Z,9.80
2019-01-11T12:23:44.691Z,9.70
2019-01-11T12:26:33.988Z,9.70
2019-01-11T12:29:23.481Z,9.70
2019-01-11T12:32:12.741Z,9.70
2019-01-11T12:35:02.042Z,9.60
2019-01-11T12:37:51.271Z,9.60
2019-01-11T12:40:43.551Z,9.70
2019-01-11T12:43:40.701Z,9.60
2019-01-11T12:46:30.268Z,9.60
2019-01-11T12:49:19.450Z,9.50
2019-01-11T12:52:08.609Z,9.60
2019-01-11T12:54:57.489Z,9.50
2019-01-11T12:57:49.424Z,9.50
2019-01-11T13:00:44.350Z,9.50
2019-01-11T13:03:39.654Z,9.40
2019-01-11T13:06:30.293Z,9.40
2019-01-11T13:09:20.778Z,9.40
2019-01-11T13:12:10.869Z,9.40
2019-01-11T13:15:00.284Z,9.40
2019-01-11T13:17:50.161Z,9.30
2019-01-11T13:20:39.429Z,9.30
2019-01-11T13:23:28.520Z,9.30
2019-01-11T13:26:17.579Z,9.30
2019-01-11T13:29:07.834Z,9.20
2019-01-11T13:31:57.259Z,9.20
2019-01-11T13:34:47.021Z,9.20
2019-01-11T13:37:37.071Z,9.30
2019-01-11T13:40:27.860Z,9.20
2019-01-11T13:43:16.972Z,9.20
2019-01-11T13:46:07.041Z,9.20
2019-01-11T13:48:57.088Z,9.20
2019-01-11T13:51:47.323Z,9.30
2019-01-11T13:54:36.462Z,9.20
2019-01-11T13:57:26.986Z,9.30
2019-01-11T14:00:17.414Z,9.20
2019-01-11T14:03:06.730Z,9.20
2019-01-11T14:05:55.971Z,9.20
2019-01-11T14:08:45.698Z,9.20
2019-01-11T14:11:36.282Z,9.10
2019-01-11T14:14:27.644Z,9.10
2019-01-11T14:17:16.972Z,9.10
2019-01-11T14:20:06.912Z,9.10
2019-01-11T14:22:56.289Z,9.00
2019-01-11T14:25:48.899Z,9.00
2019-01-11T14:28:38.559Z,8.90
2019-01-11T14:31:28.231Z,8.90
2019-01-11T14:34:18.322Z,8.80
2019-01-11T14:37:08.674Z,8.80
2019-01-11T14:39:58.723Z,8.80
2019-01-11T14:42:49.078Z,8.70
2019-01-11T14:45:39.386Z,8.80
2019-01-11T14:48:33.467Z,8.80
2019-01-11T14:51:21.573Z,8.80
2019-01-11T14:54:12.271Z,8.70
2019-01-11T14:57:01.901Z,8.70
2019-01-11T14:59:51.913Z,8.60
2019-01-11T15:02:41.361Z,8.60
2019-01-11T15:05:31.391Z,8.50
2019-01-11T15:08:21.370Z,8.40
2019-01-11T15:11:13.128Z,8.30
2019-01-11T15:14:04.267Z,8.40
2019-01-11T15:16:54.728Z,8.30
2019-01-11T15:19:45.071Z,8.30
2019-01-11T15:22:34.168Z,8.30
2019-01-11T15:25:23.371Z,8.40
2019-01-11T15:28:12.401Z,8.30
2019-01-11T15:31:01.568Z,8.30
2019-01-11T15:33:50.970Z,8.30
2019-01-11T15:36:41.074Z,8.20
2019-01-11T15:39:30.474Z,8.20
2019-01-11T15:42:19.760Z,8.20
2019-01-11T15:45:09.551Z,8.30
2019-01-11T15:47:58.563Z,8.20
2019-01-11T15:50:53.868Z,8.30
2019-01-11T15:53:43.432Z,8.30
2019-01-11T15:56:33.382Z,8.30
2019-01-11T15:59:23.720Z,8.20
2019-01-11T16:02:12.895Z,8.20
2019-01-11T16:05:02.460Z,8.20
2019-01-11T16:07:51.850Z,8.20
2019-01-11T16:11:29.202Z,8.20
2019-01-11T16:15:05.660Z,8.20
2019-01-11T16:17:56.309Z,8.10
2019-01-11T16:20:45.614Z,8.10
2019-01-11T16:23:34.517Z,8.00
2019-01-11T16:26:23.813Z,8.10
2019-01-11T16:29:13.168Z,8.00
2019-01-11T16:32:02.341Z,8.00
2019-01-11T16:34:51.609Z,8.00
2019-01-11T16:37:40.918Z,7.90
2019-01-11T16:40:30.442Z,7.90
2019-01-11T16:43:19.782Z,7.80
2019-01-11T16:46:08.921Z,7.80
2019-01-11T16:48:57.860Z,7.70
2019-01-11T16:51:47.298Z,7.60
2019-01-11T16:54:36.781Z,7.60
2019-01-11T16:57:25.780Z,7.50
2019-01-11T17:00:17.288Z,7.50
2019-01-11T17:03:06.438Z,7.50
2019-01-11T17:05:55.967Z,7.50
2019-01-11T17:08:45.418Z,7.50
2019-01-11T17:11:34.758Z,7.40
2019-01-11T17:14:24.338Z,7.30
2019-01-11T17:17:14.599Z,7.40
2019-01-11T17:20:06.214Z,7.30
2019-01-11T17:22:56.076Z,7.30
2019-01-11T17:25:49.686Z,7.30
2019-01-11T17:28:39.754Z,7.20
2019-01-11T17:31:30.158Z,7.20
2019-01-11T17:34:20.293Z,7.20
2019-01-11T17:37:09.926Z,7.20
2019-01-11T17:39:59.981Z,7.20
2019-01-11T17:42:49.889Z,7.10
2019-01-11T17:45:39.076Z,7.10
2019-01-11T17:48:28.348Z,7.20
2019-01-11T17:51:18.034Z,7.30
2019-01-11T17:54:07.329Z,7.20
2019-01-11T17:56:56.438Z,7.20
2019-01-11T17:59:45.959Z,7.10
2019-01-11T18:02:35.261Z,7.10
2019-01-11T18:05:24.621Z,7.00
2019-01-11T18:08:13.841Z,7.00
2019-01-11T18:11:03.398Z,7.10
2019-01-11T18:13:52.840Z,7.00
2019-01-11T18:16:42.737Z,7.00
2019-01-11T18:19:32.880Z,7.00
2019-01-11T18:22:22.979Z,7.00
2019-01-11T18:25:15.268Z,6.90
2019-01-11T18:28:05.127Z,6.90
2019-01-11T18:30:54.909Z,7.00
2019-01-11T18:33:47.861Z,7.00
2019-01-11T18:36:37.549Z,6.80
2019-01-11T18:39:27.969Z,6.80
2019-01-11T18:42:26.114Z,6.70
2019-01-11T18:45:12.952Z,6.70
2019-01-11T18:48:02.481Z,6.70
2019-01-11T18:50:51.993Z,6.70
2019-01-11T18:53:41.339Z,6.70
2019-01-11T18:56:30.591Z,6.60
2019-01-11T18:59:19.781Z,6.60
2019-01-11T19:02:09.289Z,6.70
2019-01-11T19:04:58.819Z,6.60
2019-01-11T19:07:48.935Z,6.60
2019-01-11T19:10:38.215Z,6.60
2019-01-11T19:13:27.261Z,6.50
2019-01-11T19:16:16.491Z,6.50
2019-01-11T19:19:06.278Z,6.50
2019-01-11T19:21:55.512Z,6.50
2019-01-11T19:24:44.509Z,6.60
2019-01-11T19:27:33.672Z,6.50
2019-01-11T19:30:27.862Z,6.50
2019-01-11T19:33:17.383Z,6.50
2019-01-11T19:36:06.860Z,6.40
2019-01-11T19:38:56.425Z,6.30
2019-01-11T19:41:46.491Z,6.30
2019-01-11T19:44:35.779Z,6.30
2019-01-11T19:47:25.138Z,6.20
2019-01-11T19:50:16.572Z,6.20
2019-01-11T19:53:06.040Z,6.20
2019-01-11T19:55:59.033Z,6.30
2019-01-11T19:58:46.480Z,6.20
2019-01-11T20:01:35.755Z,6.10
2019-01-11T20:04:24.979Z,6.20
2019-01-11T20:07:14.253Z,6.10
2019-01-11T20:10:04.243Z,6.10
2019-01-11T20:12:53.511Z,6.20
2019-01-11T20:15:42.659Z,6.10
2019-01-11T20:18:32.878Z,6.10
2019-01-11T20:21:22.652Z,6.10
2019-01-11T20:24:12.442Z,6.10
2019-01-11T20:27:02.111Z,6.10
2019-01-11T20:29:51.372Z,6.10
2019-01-11T20:32:40.591Z,6.00
2019-01-11T20:35:29.863Z,6.00
2019-01-11T20:38:19.142Z,6.10
2019-01-11T20:41:08.498Z,6.20
2019-01-11T20:44:01.012Z,6.10
2019-01-11T20:46:50.253Z,6.10
2019-01-11T20:49:39.830Z,6.00
2019-01-11T20:52:29.259Z,6.10
2019-01-11T20:55:18.329Z,6.20
2019-01-11T20:58:07.471Z,6.10
2019-01-11T21:00:56.860Z,6.10
2019-01-11T21:03:46.159Z,6.20
2019-01-11T21:06:35.759Z,6.20
2019-01-11T21:09:25.081Z,6.10
2019-01-11T21:12:14.313Z,6.20
2019-01-11T21:15:04.754Z,6.20
2019-01-11T21:17:54.178Z,6.20
2019-01-11T21:20:43.150Z,6.10
2019-01-11T21:23:33.371Z,6.10
2019-01-11T21:26:22.421Z,6.10
2019-01-11T21:29:12.713Z,6.10
2019-01-11T21:32:01.692Z,6.10
2019-01-11T21:34:50.942Z,6.10
2019-01-11T21:37:40.491Z,6.10
2019-01-11T21:40:29.680Z,6.20
2019-01-11T21:43:18.752Z,6.10
2019-01-11T21:46:08.028Z,6.10
2019-01-11T21:48:57.622Z,6.10
2019-01-11T21:51:46.874Z,6.20
2019-01-11T21:54:35.920Z,6.20
2019-01-11T21:57:25.262Z,6.20
2019-01-11T22:00:23.599Z,6.10
2019-01-11T22:03:23.332Z,6.10
2019-01-11T22:06:12.613Z,6.10
2019-01-11T22:09:01.819Z,6.10
2019-01-11T22:11:52.942Z,6.10
2019-01-11T22:14:42.199Z,6.10
2019-01-11T22:17:31.552Z,6.10
2019-01-11T22:20:20.872Z,6.10
2019-01-11T22:23:10.142Z,6.20
2019-01-11T22:25:59.283Z,6.10
2019-01-11T22:28:48.978Z,6.10
2019-01-11T22:31:38.122Z,6.00
2019-01-11T22:34:27.374Z,6.10
2019-01-11T22:37:17.232Z,6.00
2019-01-11T22:40:14.718Z,6.00
2019-01-11T22:43:04.958Z,6.00
2019-01-11T22:45:54.358Z,5.90
2019-01-11T22:48:43.582Z,5.90
2019-01-11T22:51:32.895Z,5.90
2019-01-11T22:54:22.241Z,5.90
2019-01-11T22:57:12.021Z,5.90
2019-01-11T23:00:05.943Z,5.90
2019-01-11T23:02:58.459Z,6.00
2019-01-11T23:05:48.002Z,6.00
2019-01-11T23:08:37.278Z,5.90
2019-01-11T23:11:48.939Z,5.90
2019-01-11T23:14:38.440Z,6.10
2019-01-11T23:17:45.929Z,6.10
2019-01-11T23:20:35.252Z,6.10
2019-01-11T23:23:24.498Z,6.10
2019-01-11T23:26:14.343Z,6.00
2019-01-11T23:29:03.393Z,6.00
2019-01-11T23:31:53.006Z,6.00
2019-01-11T23:34:42.131Z,6.00
2019-01-11T23:37:31.442Z,5.90
2019-01-11T23:40:20.682Z,6.00
2019-01-11T23:43:09.889Z,5.90
2019-01-11T23:45:59.520Z,6.00
2019-01-11T23:48:49.600Z,6.00
2019-01-11T23:51:39.565Z,5.90
2019-01-11T23:54:29.040Z,6.00
2019-01-11T23:57:18.691Z,6.00
